Time;durP1;ratioP1;P1;durP2;ratioP2;P2;SDS_P1;SDS_P2;PMS_P1;PMS_P2;Temp;Humidity;BMP_temperature;BMP_pressure;BME280_temperature;BME280_humidity;BME280_pressure;Samples;Min_cycle;Max_cycle;Signal;HPM_P1;HPM_P2
2022/11/08 00:01:57;;;;;;;;;5.33;5.33;;;;;-145.03;100.00;62373.16;5054592;28;45440;-75
2022/11/08 00:04:23;;;;;;;;;4.00;4.00;;;;;-145.03;100.00;62373.16;5054770;28;46289;-75
2022/11/08 00:15:01;;;;;;;;;7.00;5.00;;;;;-145.03;100.00;62373.16;5041731;28;45858;-76
2022/11/08 00:17:29;;;;;;;;;3.67;2.33;;;;;-145.03;100.00;62373.16;5054986;28;47335;-76
2022/11/08 00:19:54;;;;;;;;;9.67;4.00;;;;;-145.03;100.00;62373.16;5055362;28;45540;-76
2022/11/08 00:22:21;;;;;;;;;6.33;6.33;;;;;-145.03;100.00;62373.16;5055241;28;45404;-77
2022/11/08 00:24:46;;;;;;;;;7.00;5.00;;;;;-145.03;100.00;62373.16;5036335;28;46201;-77
2022/11/08 00:27:18;;;;;;;;;3.67;3.67;;;;;-145.03;100.00;62373.16;5056639;28;45338;-77
2022/11/08 00:29:44;;;;;;;;;4.00;4.00;;;;;-145.03;100.00;62373.16;5055900;28;45391;-77
2022/11/08 00:32:15;;;;;;;;;5.67;4.33;;;;;-145.03;100.00;62373.16;5038489;28;45725;-77
2022/11/08 00:34:41;;;;;;;;;4.67;3.33;;;;;-145.03;100.00;62373.16;5052005;28;45678;-76
2022/11/08 00:37:07;;;;;;;;;3.00;3.00;;;;;-145.03;100.00;62373.16;5052180;28;45501;-78
2022/11/08 00:39:33;;;;;;;;;5.00;4.00;;;;;-145.03;100.00;62373.16;5053463;28;45607;-77
2022/11/08 00:41:59;;;;;;;;;4.00;4.00;;;;;-145.03;100.00;62373.16;5055523;28;45622;-77
2022/11/08 00:44:24;;;;;;;;;4.00;4.00;;;;;-145.03;100.00;62373.16;5055345;28;45834;-77
2022/11/08 00:46:52;;;;;;;;;3.67;3.67;;;;;-145.03;100.00;62373.16;5034812;28;45517;-76
2022/11/08 00:49:18;;;;;;;;;4.00;4.00;;;;;-145.03;100.00;62373.16;5048774;28;45345;-77
2022/11/08 00:51:44;;;;;;;;;7.67;2.67;;;;;-145.03;100.00;62373.16;5033839;28;45491;-77
2022/11/08 00:54:13;;;;;;;;;4.00;4.00;;;;;-145.03;100.00;62373.16;5053593;28;45542;-76
2022/11/08 00:56:38;;;;;;;;;5.00;2.67;;;;;-145.03;100.00;62373.16;5042470;28;45604;-76
2022/11/08 00:59:04;;;;;;;;;4.33;3.67;;;;;-145.03;100.00;62373.16;5033647;28;45410;-76
2022/11/08 01:01:29;;;;;;;;;4.00;4.00;;;;;-145.03;100.00;62373.16;5051217;28;45365;-77
2022/11/08 01:03:55;;;;;;;;;4.00;4.00;;;;;-145.03;100.00;62373.16;5032668;28;46220;-77
2022/11/08 01:06:23;;;;;;;;;3.00;3.00;;;;;-145.03;100.00;62373.16;5001214;28;45457;-77
2022/11/08 01:08:51;;;;;;;;;5.33;3.33;;;;;-145.03;100.00;62373.16;5047434;28;45599;-77
2022/11/08 01:11:20;;;;;;;;;3.33;3.00;;;;;-145.03;100.00;62373.16;5053995;28;45409;-73
2022/11/08 01:13:46;;;;;;;;;7.00;4.00;;;;;-145.03;100.00;62373.16;5052662;28;47723;-75
2022/11/08 01:16:23;;;;;;;;;3.67;2.67;;;;;-145.03;100.00;62373.16;5038836;28;45585;-74
2022/11/08 01:18:52;;;;;;;;;4.33;2.67;;;;;-145.03;100.00;62373.16;5055235;28;45350;-74
2022/11/08 01:21:19;;;;;;;;;4.00;4.00;;;;;-145.03;100.00;62373.16;5055738;28;46013;-74
2022/11/08 01:23:45;;;;;;;;;2.33;2.33;;;;;-145.03;100.00;62373.16;5037665;28;47907;-75
2022/11/08 01:26:17;;;;;;;;;5.33;3.00;;;;;-145.03;100.00;62373.16;5052094;28;45798;-74
2022/11/08 01:28:43;;;;;;;;;3.00;3.00;;;;;-145.03;100.00;62373.16;5055616;28;45491;-74
2022/11/08 01:31:14;;;;;;;;;1.67;1.33;;;;;-145.03;100.00;62373.16;5057113;28;45516;-74
2022/11/08 01:33:40;;;;;;;;;2.00;2.00;;;;;-145.03;100.00;62373.16;5054958;28;47158;-74
2022/11/08 01:36:08;;;;;;;;;3.33;3.00;;;;;-145.03;100.00;62373.16;5053281;28;45584;-75
2022/11/08 01:38:34;;;;;;;;;3.33;3.00;;;;;-145.03;100.00;62373.16;5053172;28;46238;-74
2022/11/08 01:41:00;;;;;;;;;5.00;3.00;;;;;-145.03;100.00;62373.16;5036134;28;45514;-74
2022/11/08 01:43:28;;;;;;;;;3.00;3.00;;;;;-145.03;100.00;62373.16;5056736;28;47279;-75
2022/11/08 01:46:28;;;;;;;;;3.00;3.00;;;;;-145.03;100.00;62373.16;5055946;28;45349;-74
2022/11/08 01:49:03;;;;;;;;;8.00;3.00;;;;;-145.03;100.00;62373.16;5055052;28;45529;-74
2022/11/08 01:51:44;;;;;;;;;2.33;2.33;;;;;-145.03;100.00;62373.16;5054578;28;46683;-74
2022/11/08 01:54:17;;;;;;;;;3.00;3.00;;;;;-145.03;100.00;62373.16;5038242;28;47534;-75
2022/11/08 01:56:43;;;;;;;;;3.33;3.00;;;;;-145.03;100.00;62373.16;5055722;28;45450;-75
2022/11/08 01:59:10;;;;;;;;;3.00;3.00;;;;;-145.03;100.00;62373.16;5055797;28;45323;-75
2022/11/08 02:01:36;;;;;;;;;7.00;5.00;;;;;-145.03;100.00;62373.16;5039052;28;45530;-74
2022/11/08 02:04:03;;;;;;;;;4.00;4.00;;;;;-145.03;100.00;62373.16;5055453;28;47053;-75
2022/11/08 02:06:32;;;;;;;;;3.33;3.33;;;;;-145.03;100.00;62373.16;5055184;28;46778;-75
2022/11/08 02:09:01;;;;;;;;;2.67;2.67;;;;;-145.03;100.00;62373.16;5056846;28;45294;-75
2022/11/08 02:11:28;;;;;;;;;2.00;2.00;;;;;-145.03;100.00;62373.16;5056686;28;45535;-74
2022/11/08 02:13:54;;;;;;;;;2.33;2.33;;;;;-145.03;100.00;62373.16;5055733;28;46194;-74
2022/11/08 02:16:19;;;;;;;;;3.00;3.00;;;;;-145.03;100.00;62373.16;5054047;28;45490;-74
2022/11/08 02:18:47;;;;;;;;;5.00;1.67;;;;;-145.03;100.00;62373.16;5037546;28;45640;-74
2022/11/08 02:21:25;;;;;;;;;2.67;2.67;;;;;-145.03;100.00;62373.16;5055113;28;45615;-74
2022/11/08 02:23:53;;;;;;;;;2.67;2.67;;;;;-145.03;100.00;62373.16;5051335;28;45833;-74
2022/11/08 02:26:23;;;;;;;;;5.33;3.00;;;;;-145.03;100.00;62373.16;5053857;28;45409;-74
2022/11/08 02:28:49;;;;;;;;;2.00;2.00;;;;;-145.03;100.00;62373.16;5055191;28;45374;-74
2022/11/08 02:31:17;;;;;;;;;4.00;3.00;;;;;-145.03;100.00;62373.16;5056714;28;45542;-74
2022/11/08 02:33:43;;;;;;;;;2.00;2.00;;;;;-145.03;100.00;62373.16;5057507;28;46310;-74
2022/11/08 02:36:13;;;;;;;;;4.67;3.33;;;;;-145.03;100.00;62373.16;5056217;28;45504;-74
2022/11/08 02:38:46;;;;;;;;;2.00;2.00;;;;;-145.03;100.00;62373.16;5055834;28;45423;-74
2022/11/08 02:41:12;;;;;;;;;2.67;2.67;;;;;-145.03;100.00;62373.16;5052437;28;45245;-74
2022/11/08 02:43:37;;;;;;;;;2.67;2.67;;;;;-145.03;100.00;62373.16;5057359;28;45701;-74
2022/11/08 02:46:04;;;;;;;;;1.67;1.67;;;;;-145.03;100.00;62373.16;5038336;28;45527;-75
2022/11/08 02:48:30;;;;;;;;;3.00;1.33;;;;;-145.03;100.00;62373.16;5057307;28;45341;-74
2022/11/08 02:50:56;;;;;;;;;3.00;3.00;;;;;-145.03;100.00;62373.16;5040980;28;45647;-75
2022/11/08 02:53:21;;;;;;;;;3.00;2.00;;;;;-145.03;100.00;62373.16;5052706;28;45701;-75
2022/11/08 02:55:47;;;;;;;;;2.67;2.67;;;;;-145.03;100.00;62373.16;5054151;28;45655;-75
2022/11/08 02:58:13;;;;;;;;;3.33;3.33;;;;;-145.03;100.00;62373.16;5038244;28;45492;-74
2022/11/08 03:00:39;;;;;;;;;2.67;2.67;;;;;-145.03;100.00;62373.16;5053517;28;45380;-75
2022/11/08 03:03:05;;;;;;;;;1.67;1.67;;;;;-145.03;100.00;62373.16;5053694;28;45519;-75
2022/11/08 03:05:31;;;;;;;;;1.67;1.67;;;;;-145.03;100.00;62373.16;5053132;28;45487;-74
2022/11/08 03:07:57;;;;;;;;;2.00;2.00;;;;;-145.03;100.00;62373.16;5041847;28;45442;-74
2022/11/08 03:10:24;;;;;;;;;3.33;2.67;;;;;-145.03;100.00;62373.16;5054597;28;45526;-74
2022/11/08 03:13:02;;;;;;;;;1.67;1.67;;;;;-145.03;100.00;62373.16;5053963;28;45507;-76
2022/11/08 03:15:28;;;;;;;;;3.67;2.67;;;;;-145.03;100.00;62373.16;5056015;28;45456;-76
2022/11/08 03:17:57;;;;;;;;;3.67;2.00;;;;;-145.03;100.00;62373.16;5055013;28;45511;-76
2022/11/08 03:20:23;;;;;;;;;1.67;1.67;;;;;-145.03;100.00;62373.16;5053511;28;45847;-76
2022/11/08 03:22:55;;;;;;;;;1.33;1.33;;;;;-145.03;100.00;62373.16;5054775;28;46093;-77
2022/11/08 03:25:21;;;;;;;;;2.33;2.33;;;;;-145.03;100.00;62373.16;5053119;28;45770;-76
2022/11/08 03:27:46;;;;;;;;;3.00;2.33;;;;;-145.03;100.00;62373.16;5036521;28;45516;-76
2022/11/08 03:30:12;;;;;;;;;2.33;2.00;;;;;-145.03;100.00;62373.16;5032655;28;45551;-76
2022/11/08 03:32:38;;;;;;;;;2.33;2.33;;;;;-145.03;100.00;62373.16;5047895;28;45433;-76
2022/11/08 03:35:04;;;;;;;;;3.33;2.33;;;;;-145.03;100.00;62373.16;5055675;28;45393;-76
2022/11/08 03:37:29;;;;;;;;;2.67;2.67;;;;;-145.03;100.00;62373.16;5039306;28;45345;-76
2022/11/08 03:39:55;;;;;;;;;0.67;0.67;;;;;-145.03;100.00;62373.16;5056509;28;45352;-77
2022/11/08 03:42:20;;;;;;;;;1.67;1.67;;;;;-145.03;100.00;62373.16;5055872;28;45404;-76
2022/11/08 03:44:46;;;;;;;;;2.67;2.67;;;;;-145.03;100.00;62373.16;5055767;28;45457;-76
2022/11/08 03:47:12;;;;;;;;;4.33;1.33;;;;;-145.03;100.00;62373.16;5054105;28;45596;-76
2022/11/08 03:49:37;;;;;;;;;2.00;2.00;;;;;-145.03;100.00;62373.16;5038677;28;45684;-76
2022/11/08 03:52:03;;;;;;;;;1.67;1.67;;;;;-145.03;100.00;62373.16;5054359;28;45355;-76
2022/11/08 03:54:29;;;;;;;;;1.33;1.33;;;;;-145.03;100.00;62373.16;5053438;28;45571;-76
2022/11/08 03:56:54;;;;;;;;;2.67;2.00;;;;;-145.03;100.00;62373.16;5052883;28;45350;-75
2022/11/08 03:59:20;;;;;;;;;1.33;1.33;;;;;-145.03;100.00;62373.16;5056122;28;45325;-76
2022/11/08 04:01:45;;;;;;;;;2.67;1.00;;;;;-145.03;100.00;62373.16;5034686;28;46073;-76
2022/11/08 04:04:11;;;;;;;;;2.00;2.00;;;;;-145.03;100.00;62373.16;5036920;28;45422;-75
2022/11/08 04:06:36;;;;;;;;;2.33;1.33;;;;;-145.03;100.00;62373.16;5054410;28;45421;-76
2022/11/08 04:09:02;;;;;;;;;1.67;1.67;;;;;-145.03;100.00;62373.16;5054973;28;45540;-75
2022/11/08 04:16:56;;;;;;;;;1.67;1.67;;;;;-145.03;100.00;62373.16;5051314;28;45706;-75
2022/11/08 04:22:06;;;;;;;;;1.33;1.33;;;;;-145.03;100.00;62373.16;5051784;28;45918;-75
2022/11/08 04:24:32;;;;;;;;;1.67;1.67;;;;;-145.03;100.00;62373.16;5054161;28;45277;-74
2022/11/08 04:26:57;;;;;;;;;0.00;0.00;;;;;-145.03;100.00;62373.16;5055511;28;45483;-74
2022/11/08 04:29:23;;;;;;;;;1.00;1.00;;;;;-145.03;100.00;62373.16;5053997;28;45492;-74
2022/11/08 04:31:48;;;;;;;;;1.67;1.67;;;;;-145.03;100.00;62373.16;5035329;28;47874;-75
2022/11/08 04:34:14;;;;;;;;;1.00;1.00;;;;;-145.03;100.00;62373.16;5052693;28;45452;-75
2022/11/08 04:36:40;;;;;;;;;2.00;2.00;;;;;-145.03;100.00;62373.16;5054692;28;45500;-75
2022/11/08 04:39:29;;;;;;;;;1.00;1.00;;;;;-145.03;100.00;62373.16;5054914;28;45500;-75
2022/11/08 04:41:55;;;;;;;;;1.00;1.00;;;;;-145.03;100.00;62373.16;5053756;28;45499;-74
2022/11/08 04:44:22;;;;;;;;;3.00;1.67;;;;;-145.03;100.00;62373.16;5052247;28;45642;-75
2022/11/08 04:46:47;;;;;;;;;1.00;1.00;;;;;-145.03;100.00;62373.16;5037063;28;45703;-74
2022/11/08 04:49:13;;;;;;;;;1.67;1.67;;;;;-145.03;100.00;62373.16;5054400;28;45455;-74
2022/11/08 04:51:39;;;;;;;;;1.00;1.00;;;;;-145.03;100.00;62373.16;5050817;28;45527;-75
2022/11/08 04:54:06;;;;;;;;;1.00;1.00;;;;;-145.03;100.00;62373.16;5053752;28;46170;-75
2022/11/08 04:56:32;;;;;;;;;2.33;2.33;;;;;-145.03;100.00;62373.16;5057281;28;46112;-74
2022/11/08 04:58:59;;;;;;;;;1.00;1.00;;;;;-145.03;100.00;62373.16;5057250;28;45486;-74
2022/11/08 05:01:28;;;;;;;;;1.00;1.00;;;;;-145.03;100.00;62373.16;5055114;28;46090;-75
2022/11/08 05:03:54;;;;;;;;;1.00;1.00;;;;;-145.03;100.00;62373.16;5055463;28;45571;-74
2022/11/08 05:06:26;;;;;;;;;1.00;1.00;;;;;-145.03;100.00;62373.16;5058287;28;45338;-75
2022/11/08 05:08:54;;;;;;;;;2.00;2.00;;;;;-145.03;100.00;62373.16;5059101;28;45384;-75
2022/11/08 05:11:22;;;;;;;;;2.00;2.00;;;;;-145.03;100.00;62373.16;5056794;28;46065;-75
2022/11/08 05:13:49;;;;;;;;;1.00;1.00;;;;;-145.03;100.00;62373.16;5056337;28;45536;-74
2022/11/08 05:16:19;;;;;;;;;2.00;2.00;;;;;-145.03;100.00;62373.16;5055171;28;45471;-74
2022/11/08 05:18:45;;;;;;;;;1.00;1.00;;;;;-145.03;100.00;62373.16;5057894;28;45348;-74
2022/11/08 05:23:58;;;;;;;;;1.00;1.00;;;;;-145.03;100.00;62373.16;5056755;28;45555;-74
2022/11/08 05:26:25;;;;;;;;;1.00;1.00;;;;;-145.03;100.00;62373.16;5057147;28;46039;-74
2022/11/08 05:28:51;;;;;;;;;1.00;1.00;;;;;-145.03;100.00;62373.16;5056963;28;45457;-74
2022/11/08 05:31:17;;;;;;;;;1.00;1.00;;;;;-145.03;100.00;62373.16;5055674;28;46053;-74
2022/11/08 05:33:43;;;;;;;;;1.67;1.33;;;;;-145.03;100.00;62373.16;5057589;28;45433;-75
2022/11/08 05:36:11;;;;;;;;;1.00;1.00;;;;;-145.03;100.00;62373.16;5054981;28;45645;-74
2022/11/08 05:38:38;;;;;;;;;1.00;1.00;;;;;-145.03;100.00;62373.16;5036723;28;45407;-74
2022/11/08 05:41:04;;;;;;;;;1.67;1.67;;;;;-145.03;100.00;62373.16;5056370;28;46365;-74
2022/11/08 05:43:29;;;;;;;;;2.00;2.00;;;;;-145.03;100.00;62373.16;5055637;28;47368;-75
2022/11/08 05:45:55;;;;;;;;;3.00;1.67;;;;;-145.03;100.00;62373.16;5057067;28;45516;-74
2022/11/08 05:48:21;;;;;;;;;1.00;1.00;;;;;-145.03;100.00;62373.16;5040532;28;45437;-75
2022/11/08 05:50:47;;;;;;;;;1.00;1.00;;;;;-145.03;100.00;62373.16;5053393;28;45443;-75
2022/11/08 05:53:12;;;;;;;;;0.67;0.67;;;;;-145.03;100.00;62373.16;5056408;28;45472;-75
2022/11/08 05:55:38;;;;;;;;;5.33;5.33;;;;;-145.03;100.00;62373.16;5056549;28;45415;-73
2022/11/08 05:58:04;;;;;;;;;2.00;2.00;;;;;-145.03;100.00;62373.16;5056738;28;45492;-75
2022/11/08 06:00:31;;;;;;;;;3.33;2.00;;;;;-145.03;100.00;62373.16;5052778;28;46001;-75
2022/11/08 06:02:56;;;;;;;;;1.67;1.00;;;;;-145.03;100.00;62373.16;5053308;28;45587;-73
2022/11/08 06:05:22;;;;;;;;;1.00;1.00;;;;;-145.03;100.00;62373.16;5054919;28;45715;-73
2022/11/08 06:07:47;;;;;;;;;1.00;1.00;;;;;-145.03;100.00;62373.16;5038848;28;45411;-74
2022/11/08 06:10:12;;;;;;;;;3.67;3.00;;;;;-145.03;100.00;62373.16;5054099;28;45505;-73
2022/11/08 06:12:38;;;;;;;;;2.33;2.00;;;;;-145.03;100.00;62373.16;5055328;28;45511;-75
2022/11/08 06:15:07;;;;;;;;;2.00;1.00;;;;;-145.03;100.00;62373.16;5036740;28;45394;-75
2022/11/08 06:17:33;;;;;;;;;1.00;1.00;;;;;-145.03;100.00;62373.16;5055362;28;45552;-75
2022/11/08 06:19:58;;;;;;;;;1.00;1.00;;;;;-145.03;100.00;62373.16;5029293;28;46897;-74
2022/11/08 06:22:24;;;;;;;;;2.67;1.67;;;;;-145.03;100.00;62373.16;5044202;28;45589;-75
2022/11/08 06:24:49;;;;;;;;;1.67;1.00;;;;;-145.03;100.00;62373.16;5027519;28;45680;-75
2022/11/08 06:27:15;;;;;;;;;1.00;1.00;;;;;-145.03;100.00;62373.16;5048992;28;45513;-72
2022/11/08 06:29:41;;;;;;;;;1.00;1.00;;;;;-145.03;100.00;62373.16;5049379;28;47221;-74
2022/11/08 06:32:10;;;;;;;;;1.00;1.00;;;;;-145.03;100.00;62373.16;5051445;28;45286;-75
2022/11/08 06:34:35;;;;;;;;;0.33;0.00;;;;;-145.03;100.00;62373.16;5057013;28;45456;-73
2022/11/08 06:37:01;;;;;;;;;2.00;2.00;;;;;-145.03;100.00;62373.16;5054036;28;45764;-74
2022/11/08 06:39:27;;;;;;;;;2.00;2.00;;;;;-145.03;100.00;62373.16;5038079;28;47039;-72
2022/11/08 06:41:53;;;;;;;;;2.00;2.00;;;;;-145.03;100.00;62373.16;5046813;28;45809;-72
2022/11/08 06:44:18;;;;;;;;;1.00;1.00;;;;;-145.03;100.00;62373.16;5035180;28;45594;-72
2022/11/08 06:46:43;;;;;;;;;4.00;3.00;;;;;-145.03;100.00;62373.16;5052290;28;45537;-71
2022/11/08 06:49:09;;;;;;;;;3.67;2.00;;;;;-145.03;100.00;62373.16;5051478;28;45434;-72
2022/11/08 06:51:34;;;;;;;;;2.00;2.00;;;;;-145.03;100.00;62373.16;5036221;28;45283;-72
2022/11/08 06:54:02;;;;;;;;;1.67;1.67;;;;;-145.03;100.00;62373.16;5034913;28;45726;-72
2022/11/08 06:56:27;;;;;;;;;1.00;1.00;;;;;-145.03;100.00;62373.16;5037989;28;45496;-72
2022/11/08 06:58:53;;;;;;;;;1.00;1.00;;;;;-145.03;100.00;62373.16;5054963;28;46632;-71
2022/11/08 07:01:18;;;;;;;;;3.00;2.00;;;;;-145.03;100.00;62373.16;5056621;28;46007;-74
2022/11/08 07:03:43;;;;;;;;;0.33;0.33;;;;;-145.03;100.00;62373.16;5055891;28;45555;-71
2022/11/08 07:06:09;;;;;;;;;1.00;1.00;;;;;-145.03;100.00;62373.16;5038691;28;45364;-71
2022/11/08 07:08:34;;;;;;;;;2.00;2.00;;;;;-145.03;100.00;62373.16;5034806;28;46992;-71
2022/11/08 07:11:00;;;;;;;;;2.67;1.00;;;;;-145.03;100.00;62373.16;5048556;28;45464;-72
2022/11/08 07:13:25;;;;;;;;;1.67;1.67;;;;;-145.03;100.00;62373.16;5038324;28;45585;-73
2022/11/08 07:15:51;;;;;;;;;2.00;2.00;;;;;-145.03;100.00;62373.16;5037503;28;45466;-72
2022/11/08 07:18:18;;;;;;;;;2.00;2.00;;;;;-145.03;100.00;62373.16;5056049;28;47166;-71
2022/11/08 07:20:43;;;;;;;;;1.67;1.33;;;;;-145.03;100.00;62373.16;5053439;28;45428;-71
2022/11/08 07:23:10;;;;;;;;;0.00;0.00;;;;;-145.03;100.00;62373.16;5034739;28;45494;-73
2022/11/08 07:25:36;;;;;;;;;1.00;1.00;;;;;-145.03;100.00;62373.16;5056607;28;45448;-82
2022/11/08 07:28:04;;;;;;;;;3.00;1.00;;;;;-145.03;100.00;62373.16;5038000;28;46191;-74
2022/11/08 07:30:30;;;;;;;;;3.00;3.00;;;;;-145.03;100.00;62373.16;5054873;28;45537;-83
2022/11/08 07:32:56;;;;;;;;;3.67;2.00;;;;;-145.03;100.00;62373.16;5050451;28;45523;-76
2022/11/08 07:35:26;;;;;;;;;1.67;1.67;;;;;-145.03;100.00;62373.16;5048722;28;45407;-76
2022/11/08 07:37:51;;;;;;;;;2.67;2.00;;;;;-145.03;100.00;62373.16;5059636;28;45405;-76
2022/11/08 07:40:17;;;;;;;;;2.67;2.67;;;;;-145.03;100.00;62373.16;5037052;28;45623;-76
2022/11/08 07:42:42;;;;;;;;;2.00;2.00;;;;;-145.03;100.00;62373.16;5056861;28;45672;-82
2022/11/08 07:45:09;;;;;;;;;1.00;1.00;;;;;-145.03;100.00;62373.16;5037329;28;45959;-83
2022/11/08 07:47:34;;;;;;;;;2.00;2.00;;;;;-145.03;100.00;62373.16;5026670;28;48663;-82
2022/11/08 07:50:00;;;;;;;;;3.33;1.67;;;;;-145.03;100.00;62373.16;5024434;28;45519;-81
2022/11/08 07:52:25;;;;;;;;;2.00;2.00;;;;;-145.03;100.00;62373.16;5038233;28;45543;-81
2022/11/08 07:54:51;;;;;;;;;1.67;1.67;;;;;-145.03;100.00;62373.16;5034568;28;45507;-82
2022/11/08 07:57:16;;;;;;;;;2.00;2.00;;;;;-145.03;100.00;62373.16;5019593;28;47530;-81
2022/11/08 07:59:41;;;;;;;;;2.33;2.33;;;;;-145.03;100.00;62373.16;5016910;28;45410;-81
2022/11/08 08:02:09;;;;;;;;;0.33;0.33;;;;;-145.03;100.00;62373.16;5020314;28;45539;-81
2022/11/08 08:04:35;;;;;;;;;3.67;2.00;;;;;-145.03;100.00;62373.16;5018939;28;45685;-80
2022/11/08 08:07:00;;;;;;;;;4.00;4.00;;;;;-145.03;100.00;62373.16;5026937;28;45487;-79
2022/11/08 08:09:26;;;;;;;;;2.00;2.00;;;;;-145.03;100.00;62373.16;5036246;28;45391;-79
2022/11/08 08:11:51;;;;;;;;;3.33;3.33;;;;;-145.03;100.00;62373.16;5036218;28;45717;-79
2022/11/08 08:14:17;;;;;;;;;1.67;1.67;;;;;-145.03;100.00;62373.16;5035729;28;45381;-79
2022/11/08 08:16:42;;;;;;;;;2.00;2.00;;;;;-145.03;100.00;62373.16;5018908;28;45496;-79
2022/11/08 08:19:07;;;;;;;;;5.67;3.00;;;;;-145.03;100.00;62373.16;5040363;28;45920;-78
2022/11/08 08:21:33;;;;;;;;;2.33;2.33;;;;;-145.03;100.00;62373.16;5031502;28;45432;-73
2022/11/08 08:23:58;;;;;;;;;2.00;2.00;;;;;-145.03;100.00;62373.16;5024154;28;45519;-79
2022/11/08 08:26:24;;;;;;;;;2.00;2.00;;;;;-145.03;100.00;62373.16;5035983;28;46010;-77
2022/11/08 08:28:49;;;;;;;;;2.00;1.67;;;;;-145.03;100.00;62373.16;5044427;28;45430;-78
2022/11/08 08:31:15;;;;;;;;;2.00;2.00;;;;;-145.03;100.00;62373.16;5040150;28;46023;-77
2022/11/08 08:33:40;;;;;;;;;2.00;2.00;;;;;-145.03;100.00;62373.16;5037035;28;45372;-79
2022/11/08 08:36:06;;;;;;;;;3.00;1.67;;;;;-145.03;100.00;62373.16;5044140;28;45514;-79
2022/11/08 08:38:32;;;;;;;;;2.00;2.00;;;;;-145.03;100.00;62373.16;5037865;28;45511;-79
2022/11/08 08:40:58;;;;;;;;;2.67;2.00;;;;;-145.03;100.00;62373.16;5040404;28;45353;-78
2022/11/08 08:43:26;;;;;;;;;2.00;1.00;;;;;-145.03;100.00;62373.16;5040251;28;45971;-78
2022/11/08 08:45:53;;;;;;;;;3.33;2.00;;;;;-145.03;100.00;62373.16;5042679;28;46667;-78
2022/11/08 08:48:19;;;;;;;;;3.00;1.67;;;;;-145.03;100.00;62373.16;5047045;28;45554;-77
2022/11/08 08:50:44;;;;;;;;;2.00;2.00;;;;;-145.03;100.00;62373.16;5057868;28;45468;-78
2022/11/08 08:53:10;;;;;;;;;2.67;2.00;;;;;-145.03;100.00;62373.16;5060134;28;45501;-80
2022/11/08 08:55:41;;;;;;;;;1.33;1.00;;;;;-145.03;100.00;62373.16;5063619;28;46552;-78
2022/11/08 08:58:06;;;;;;;;;2.00;2.00;;;;;-145.03;100.00;62373.16;5065830;28;45361;-78
2022/11/08 09:00:32;;;;;;;;;4.67;2.67;;;;;-145.03;100.00;62373.16;5062856;28;45326;-79
2022/11/08 09:03:05;;;;;;;;;3.00;3.00;;;;;-145.03;100.00;62373.16;5063427;28;45405;-79
2022/11/08 09:05:32;;;;;;;;;1.67;1.00;;;;;-145.03;100.00;62373.16;5061800;28;46267;-78
2022/11/08 09:07:57;;;;;;;;;1.00;0.25;;;;;-145.03;100.00;62373.16;5062832;28;45479;-78
2022/11/08 09:10:23;;;;;;;;;1.00;1.00;;;;;-145.03;100.00;62373.16;5042559;28;45557;-79
2022/11/08 09:12:49;;;;;;;;;1.00;1.00;;;;;-145.03;100.00;62373.16;5060682;28;45490;-78
2022/11/08 09:15:14;;;;;;;;;0.50;0.50;;;;;-145.03;100.00;62373.16;5059000;28;46110;-79
2022/11/08 09:17:40;;;;;;;;;1.75;1.00;;;;;-145.03;100.00;62373.16;5059279;28;45520;-78
2022/11/08 09:20:06;;;;;;;;;0.75;0.75;;;;;-145.03;100.00;62373.16;5055393;28;45444;-78
2022/11/08 09:22:32;;;;;;;;;1.25;1.25;;;;;-145.03;100.00;62373.16;5057458;28;45620;-79
2022/11/08 09:24:58;;;;;;;;;0.75;0.00;;;;;-145.03;100.00;62373.16;5050018;28;47046;-78
2022/11/08 09:27:23;;;;;;;;;2.50;1.25;;;;;-145.03;100.00;62373.16;5059232;28;45275;-79
2022/11/08 09:29:48;;;;;;;;;2.00;1.00;;;;;-145.03;100.00;62373.16;5058874;28;45295;-78
2022/11/08 09:32:14;;;;;;;;;1.00;1.00;;;;;-145.03;100.00;62373.16;5041940;28;45432;-78
2022/11/08 09:34:39;;;;;;;;;1.00;1.00;;;;;-145.03;100.00;62373.16;5059113;28;45565;-78
2022/11/08 09:37:04;;;;;;;;;3.00;1.00;;;;;-145.03;100.00;62373.16;5059116;28;45435;-78
2022/11/08 09:39:30;;;;;;;;;1.75;1.00;;;;;-145.03;100.00;62373.16;5058970;28;45288;-79
2022/11/08 09:42:23;;;;;;;;;1.75;1.75;;;;;-145.03;100.00;62373.16;5041547;28;45620;-78
2022/11/08 09:44:57;;;;;;;;;1.00;1.00;;;;;-145.03;100.00;62373.16;5052771;28;46566;-78
2022/11/08 09:47:28;;;;;;;;;2.00;1.25;;;;;-145.03;100.00;62373.16;5058366;28;45345;-78
2022/11/08 09:49:56;;;;;;;;;1.00;1.00;;;;;-145.03;100.00;62373.16;5058722;28;45483;-78
2022/11/08 09:52:25;;;;;;;;;1.00;1.00;;;;;-145.03;100.00;62373.16;5058523;28;45869;-78
2022/11/08 09:55:00;;;;;;;;;3.00;1.25;;;;;-145.03;100.00;62373.16;5039955;28;47545;-79
2022/11/08 09:57:34;;;;;;;;;2.00;2.00;;;;;-145.03;100.00;62373.16;5057969;28;45449;-78
2022/11/08 10:00:05;;;;;;;;;0.50;0.50;;;;;-145.03;100.00;62373.16;5058804;28;45431;-79
2022/11/08 10:02:32;;;;;;;;;0.25;0.25;;;;;-145.03;100.00;62373.16;5059107;28;45441;-78
2022/11/08 10:05:08;;;;;;;;;0.25;0.25;;;;;-145.03;100.00;62373.16;5058784;28;45431;-79
2022/11/08 10:08:16;;;;;;;;;2.00;1.00;;;;;-145.03;100.00;62373.16;5058604;28;45295;-78
2022/11/08 10:11:06;;;;;;;;;3.00;1.25;;;;;-145.03;100.00;62373.16;5032061;28;45495;-78
2022/11/08 10:13:52;;;;;;;;;1.67;1.67;;;;;-145.03;100.00;62373.16;5057186;28;45393;-74
2022/11/08 10:16:28;;;;;;;;;4.00;1.00;;;;;-145.03;100.00;62373.16;5057309;28;46008;-74
2022/11/08 10:19:33;;;;;;;;;1.00;0.25;;;;;-145.03;100.00;62373.16;5058222;28;45413;-74
2022/11/08 10:22:06;;;;;;;;;1.00;1.00;;;;;-145.03;100.00;62373.16;5046057;28;45483;-74
2022/11/08 10:24:36;;;;;;;;;2.00;1.00;;;;;-145.03;100.00;62373.16;5057963;28;45429;-74
2022/11/08 10:27:09;;;;;;;;;2.00;1.00;;;;;-145.03;100.00;62373.16;5050303;28;46463;-76
2022/11/08 10:29:44;;;;;;;;;2.00;2.00;;;;;-145.03;100.00;62373.16;5057671;28;45302;-75
2022/11/08 10:32:10;;;;;;;;;0.25;0.00;;;;;-145.03;100.00;62373.16;5058056;28;45374;-75
2022/11/08 10:34:43;;;;;;;;;1.50;1.50;;;;;-145.03;100.00;62373.16;5058069;28;45254;-74
2022/11/08 10:37:12;;;;;;;;;1.00;1.00;;;;;-145.03;100.00;62373.16;5057411;28;47027;-75
2022/11/08 10:39:48;;;;;;;;;2.25;2.00;;;;;-145.03;100.00;62373.16;5057323;28;45437;-75
2022/11/08 10:42:43;;;;;;;;;1.25;1.25;;;;;-145.03;100.00;62373.16;5037068;28;45673;-75
2022/11/08 10:45:09;;;;;;;;;1.00;1.00;;;;;-145.03;100.00;62373.16;5057988;28;45377;-74
2022/11/08 10:47:36;;;;;;;;;1.50;1.50;;;;;-145.03;100.00;62373.16;5057287;28;46047;-75
2022/11/08 10:50:12;;;;;;;;;1.50;1.50;;;;;-145.03;100.00;62373.16;5056545;28;45543;-75
2022/11/08 10:53:00;;;;;;;;;3.00;1.75;;;;;-145.03;100.00;62373.16;5057483;28;45426;-74
2022/11/08 10:55:26;;;;;;;;;1.00;1.00;;;;;-145.03;100.00;62373.16;5057307;28;45407;-75
2022/11/08 10:57:51;;;;;;;;;4.50;1.00;;;;;-145.03;100.00;62373.16;5057029;28;45491;-75
2022/11/08 11:00:20;;;;;;;;;3.00;1.50;;;;;-145.03;100.00;62373.16;5057281;28;46120;-75
2022/11/08 11:02:49;;;;;;;;;1.00;1.00;;;;;-145.03;100.00;62373.16;5057634;28;45760;-75
2022/11/08 11:05:14;;;;;;;;;1.25;1.25;;;;;-145.03;100.00;62373.16;5057708;28;45465;-74
2022/11/08 11:07:43;;;;;;;;;2.50;2.50;;;;;-145.03;100.00;62373.16;5057148;28;46798;-75
2022/11/08 11:10:28;;;;;;;;;2.25;2.00;;;;;-145.03;100.00;62373.16;5056641;28;45452;-75
2022/11/08 11:13:02;;;;;;;;;1.33;1.33;;;;;-145.03;100.00;62373.16;5057281;28;45383;-78
2022/11/08 11:15:34;;;;;;;;;1.00;1.00;;;;;-145.03;100.00;62373.16;5057571;28;45430;-77
2022/11/08 11:18:01;;;;;;;;;4.33;2.00;;;;;-145.03;100.00;62373.16;5056702;28;45505;-76
2022/11/08 11:20:26;;;;;;;;;1.67;1.67;;;;;-145.03;100.00;62373.16;5056950;28;45382;-76
2022/11/08 11:22:52;;;;;;;;;2.00;1.00;;;;;-145.03;100.00;62373.16;5038514;28;45272;-78
2022/11/08 11:25:20;;;;;;;;;2.50;1.00;;;;;-145.03;100.00;62373.16;5026379;28;45346;-80
2022/11/08 11:27:58;;;;;;;;;4.25;1.00;;;;;-145.03;100.00;62373.16;5037426;28;45542;-77
2022/11/08 11:30:32;;;;;;;;;1.00;1.00;;;;;-145.03;100.00;62373.16;5051097;28;45472;-78
2022/11/08 11:33:04;;;;;;;;;2.00;2.00;;;;;-145.03;100.00;62373.16;5036865;28;45517;-77